Naxos — SVBZ8 — position and weather

sailwx.info

Track history (hours):
 
Tides and Currents Weather Stations Pressure Air Temp Water Temp Dewpoint Dewpoint Depression Visibility Wind Speed Wind Dir Waves Ship Positions

Naxos

Last reported at 2017-Oct-20 17:39 UTC. Time now 2017-Oct-23 00:42 UTC.
Position N 37°29' E 024°07'.

Length 90 m; draft 4 m.

Type: Tanker. MMSI: 241338000.

Date/timePositionNaut miles runAvg speedWind from/ knotsBaromVisibWave heightAir tempDewpointWater temp
2017-Oct-20 17:39N 37°29' E 024°07'312.5
2017-Oct-20 17:23N 37°26' E 024°08'512.3
2017-Oct-20 17:00N 37°21' E 024°10'612.8
2017-Oct-20 16:30N 37°15' E 024°12'612.0
2017-Oct-20 16:00N 37°09' E 024°14'611.7
2017-Oct-20 15:30N 37°04' E 024°16'611.8
2017-Oct-20 15:00N 36°58' E 024°19'  
2017-Oct-13 15:50N 36°59' E 025°19'310.6
2017-Oct-13 15:30N 37°03' E 025°18'510.7
2017-Oct-13 15:00N 37°08' E 025°19'5 9.6
2017-Oct-13 14:30N 37°12' E 025°16'5 9.7
2017-Oct-13 14:00N 37°16' E 025°12'510.2
2017-Oct-13 13:30N 37°20' E 025°08'510.4
2017-Oct-13 13:00N 37°24' E 025°04'5 9.9
2017-Oct-13 12:30N 37°27' E 024°59'2 4.0
2017-Oct-13 12:00N 37°26' E 024°56'0 0.0
2017-Oct-12 10:46N 37°26' E 024°56'0 0.3
2017-Oct-12 10:24N 37°26' E 024°56'1 3.2
2017-Oct-12 10:00N 37°27' E 024°57'2 3.3
2017-Oct-12 09:30N 37°28' E 024°59'4 8.5
2017-Oct-12 09:00N 37°32' E 024°56'510.6
2017-Oct-12 08:30N 37°36' E 024°51'  
Track history (hours):
 
Tides and Currents Weather Stations Pressure Air Temp Water Temp Dewpoint Dewpoint Depression Visibility Wind Speed Wind Dir Waves Ship Positions

Naxos

Last reported at 2017-Oct-20 17:39 UTC. Time now 2017-Oct-23 00:42 UTC.
Position N 37°29' E 024°07'.

Length 90 m; draft 4 m.

Type: Tanker. MMSI: 241338000.

Date/timePositionNaut miles runAvg speedWind from/ knotsBaromVisibWave heightAir tempDewpointWater temp
2017-Oct-20 17:39N 37°29' E 024°07'312.5
2017-Oct-20 17:23N 37°26' E 024°08'512.3
2017-Oct-20 17:00N 37°21' E 024°10'612.8
2017-Oct-20 16:30N 37°15' E 024°12'612.0
2017-Oct-20 16:00N 37°09' E 024°14'611.7
2017-Oct-20 15:30N 37°04' E 024°16'611.8
2017-Oct-20 15:00N 36°58' E 024°19'  
2017-Oct-13 15:50N 36°59' E 025°19'310.6
2017-Oct-13 15:30N 37°03' E 025°18'510.7
2017-Oct-13 15:00N 37°08' E 025°19'5 9.6
2017-Oct-13 14:30N 37°12' E 025°16'5 9.7
2017-Oct-13 14:00N 37°16' E 025°12'510.2
2017-Oct-13 13:30N 37°20' E 025°08'510.4
2017-Oct-13 13:00N 37°24' E 025°04'5 9.9
2017-Oct-13 12:30N 37°27' E 024°59'2 4.0
2017-Oct-13 12:00N 37°26' E 024°56'0 0.0
2017-Oct-12 10:46N 37°26' E 024°56'0 0.3
2017-Oct-12 10:24N 37°26' E 024°56'1 3.2
2017-Oct-12 10:00N 37°27' E 024°57'2 3.3
2017-Oct-12 09:30N 37°28' E 024°59'4 8.5
2017-Oct-12 09:00N 37°32' E 024°56'510.6
2017-Oct-12 08:30N 37°36' E 024°51'  

Dump ship's entire track history